Time;durP1;ratioP1;P1;durP2;ratioP2;P2;SDS_P1;SDS_P2;PMS_P1;PMS_P2;Temp;Humidity;BMP_temperature;BMP_pressure;BME280_temperature;BME280_humidity;BME280_pressure;Samples;Min_cycle;Max_cycle;Signal;HPM_P1;HPM_P2
2023/10/01 00:00:08;;;;;;;19.20;11.67;;;15.10;99.90;;;;;;4935721;29;20212;-54
2023/10/01 00:02:37;;;;;;;17.10;11.90;;;15.10;99.90;;;;;;4946420;28;20228;-54
2023/10/01 00:05:05;;;;;;;18.83;11.43;;;15.00;99.90;;;;;;4936195;29;20248;-54
2023/10/01 00:07:36;;;;;;;18.40;11.90;;;15.00;99.90;;;;;;4933868;29;20220;-54
2023/10/01 00:10:09;;;;;;;20.47;12.40;;;15.00;99.90;;;;;;4934615;29;20210;-54
2023/10/01 00:12:37;;;;;;;20.23;12.77;;;14.90;99.90;;;;;;4933781;29;20252;-54
2023/10/01 00:15:05;;;;;;;16.10;9.43;;;14.90;99.90;;;;;;4933044;29;20226;-54
2023/10/01 00:17:32;;;;;;;17.03;11.63;;;14.80;99.90;;;;;;4933841;29;20202;-54
2023/10/01 00:20:04;;;;;;;18.77;12.50;;;14.80;99.90;;;;;;4932268;29;20206;-54
2023/10/01 00:22:33;;;;;;;20.87;12.23;;;14.80;99.90;;;;;;4931830;29;20233;-54
2023/10/01 00:25:00;;;;;;;14.73;10.20;;;14.70;99.90;;;;;;4934384;29;20357;-53
2023/10/01 00:27:27;;;;;;;24.37;13.10;;;14.70;99.90;;;;;;4933502;29;20235;-54
2023/10/01 00:29:54;;;;;;;19.23;11.80;;;14.70;99.90;;;;;;4934150;29;20210;-54
2023/10/01 00:32:22;;;;;;;15.10;10.93;;;14.60;99.90;;;;;;4933283;29;20237;-54
2023/10/01 00:34:49;;;;;;;24.03;12.47;;;14.60;99.90;;;;;;4934204;29;20679;-54
2023/10/01 00:37:17;;;;;;;19.63;11.43;;;14.60;99.90;;;;;;4932999;29;20202;-54
2023/10/01 00:39:44;;;;;;;18.07;10.70;;;14.50;99.90;;;;;;4937771;29;20206;-54
2023/10/01 00:42:11;;;;;;;16.27;10.90;;;14.50;99.90;;;;;;4934402;29;20308;-54
2023/10/01 00:44:39;;;;;;;21.43;11.87;;;14.50;99.90;;;;;;4928529;29;20218;-54
2023/10/01 00:47:07;;;;;;;19.07;10.80;;;14.50;99.90;;;;;;4948724;29;20254;-54
2023/10/01 00:49:40;;;;;;;24.00;12.00;;;14.50;99.90;;;;;;4941795;29;20206;-54
2023/10/01 00:52:10;;;;;;;18.70;11.43;;;14.60;99.90;;;;;;4941173;29;20659;-54
2023/10/01 00:54:38;;;;;;;18.90;10.83;;;14.60;99.90;;;;;;4939127;29;20288;-54
2023/10/01 00:57:05;;;;;;;16.20;9.80;;;14.60;99.90;;;;;;4929835;29;20706;-54
2023/10/01 00:59:33;;;;;;;17.57;10.50;;;14.50;99.90;;;;;;4933095;29;20237;-54
2023/10/01 01:02:00;;;;;;;18.97;11.90;;;14.50;99.90;;;;;;4938786;28;20260;-54
2023/10/01 01:04:36;;;;;;;15.43;10.67;;;14.50;99.90;;;;;;4943397;29;20201;-54
2023/10/01 01:07:14;;;;;;;15.57;9.83;;;14.50;99.90;;;;;;4940140;29;20267;-53
2023/10/01 01:09:42;;;;;;;21.83;13.60;;;14.60;99.90;;;;;;4930606;29;20209;-54
2023/10/01 01:12:09;;;;;;;21.70;12.20;;;14.60;99.90;;;;;;4933444;29;20320;-54
2023/10/01 01:14:36;;;;;;;24.43;12.23;;;14.50;99.90;;;;;;4948117;29;20206;-54
2023/10/01 01:17:04;;;;;;;21.07;11.33;;;14.50;99.90;;;;;;4934234;29;20236;-54
2023/10/01 01:19:34;;;;;;;19.10;11.90;;;14.50;99.90;;;;;;4934538;29;20325;-54
2023/10/01 01:22:01;;;;;;;18.93;10.60;;;14.50;99.90;;;;;;4937770;28;20244;-54
2023/10/01 01:24:30;;;;;;;16.57;10.53;;;14.50;99.90;;;;;;4945381;29;20211;-54
2023/10/01 01:27:00;;;;;;;20.33;13.10;;;14.50;99.90;;;;;;4939453;29;20226;-53
2023/10/01 01:29:30;;;;;;;14.67;10.40;;;14.50;99.90;;;;;;4915457;29;20639;-54
2023/10/01 01:32:07;;;;;;;16.87;11.60;;;14.50;99.90;;;;;;4914961;29;20314;-54
2023/10/01 01:34:35;;;;;;;23.17;12.83;;;14.50;99.90;;;;;;4932369;29;20206;-54
2023/10/01 01:37:05;;;;;;;22.97;12.90;;;14.50;99.90;;;;;;4932761;29;20280;-54
2023/10/01 01:39:45;;;;;;;19.30;11.93;;;14.50;99.90;;;;;;4940979;29;20730;-54
2023/10/01 01:42:13;;;;;;;17.07;11.47;;;14.40;99.90;;;;;;4940452;29;20227;-54
2023/10/01 01:44:42;;;;;;;18.97;11.60;;;14.30;99.90;;;;;;4941788;29;20201;-54
2023/10/01 01:47:09;;;;;;;21.63;12.57;;;14.20;99.90;;;;;;4930818;29;20277;-54
2023/10/01 01:49:40;;;;;;;18.97;10.40;;;14.20;99.90;;;;;;4931141;29;20343;-54
2023/10/01 01:52:09;;;;;;;18.93;10.83;;;14.10;99.90;;;;;;4962243;23;20255;-58
2023/10/01 01:54:40;;;;;;;17.00;10.73;;;14.10;99.90;;;;;;4963787;28;20204;-58
2023/10/01 01:57:13;;;;;;;16.67;11.70;;;14.00;99.90;;;;;;4961944;28;20667;-58
2023/10/01 01:59:41;;;;;;;15.33;10.67;;;14.00;99.90;;;;;;4959496;28;20204;-58
2023/10/01 02:02:10;;;;;;;20.17;11.27;;;14.00;99.90;;;;;;4967326;28;20255;-58
2023/10/01 02:04:58;;;;;;;18.33;11.10;;;14.00;99.90;;;;;;4951950;28;20208;-58
2023/10/01 02:07:25;;;;;;;18.33;11.70;;;14.00;99.90;;;;;;4943288;28;20213;-59
2023/10/01 02:09:53;;;;;;;20.17;11.70;;;14.00;99.90;;;;;;4951276;28;20205;-58
2023/10/01 02:12:24;;;;;;;20.00;13.03;;;13.90;99.90;;;;;;4951054;28;20226;-58
2023/10/01 02:14:54;;;;;;;15.87;10.73;;;13.90;99.90;;;;;;4941968;29;20205;-58
2023/10/01 02:17:25;;;;;;;19.10;11.50;;;13.80;99.90;;;;;;4957034;28;20193;-58
2023/10/01 02:19:55;;;;;;;16.33;10.33;;;13.80;99.90;;;;;;4950553;28;20209;-58
2023/10/01 02:22:24;;;;;;;17.17;11.67;;;13.80;99.90;;;;;;4947013;29;20221;-58
2023/10/01 02:24:55;;;;;;;18.47;12.70;;;13.70;99.90;;;;;;4953943;28;20291;-58
2023/10/01 02:27:26;;;;;;;17.20;11.10;;;13.80;99.90;;;;;;4965084;28;20225;-58
2023/10/01 02:33:15;;;;;;;17.30;11.83;;;13.70;99.90;;;;;;4928193;29;20299;-58
2023/10/01 02:35:41;;;;;;;22.83;10.93;;;13.80;99.90;;;;;;4955262;28;20219;-58
2023/10/01 02:38:36;;;;;;;14.90;10.13;;;13.80;99.90;;;;;;4957085;28;20201;-58
2023/10/01 02:40:57;;;;;;;20.20;10.57;;;13.70;99.90;;;;;;4955098;28;20634;-58
2023/10/01 02:43:25;;;;;;;17.03;10.50;;;13.70;99.90;;;;;;4943576;28;20229;-58
2023/10/01 02:45:51;;;;;;;18.10;10.07;;;13.60;99.90;;;;;;4944124;28;20586;-58
2023/10/01 02:48:18;;;;;;;16.13;10.03;;;13.60;99.90;;;;;;4947008;28;20217;-58
2023/10/01 02:50:51;;;;;;;19.17;10.40;;;13.70;99.90;;;;;;4958399;28;20233;-58
2023/10/01 02:53:22;;;;;;;17.43;11.33;;;13.60;99.90;;;;;;4955128;29;20252;-58
2023/10/01 02:55:48;;;;;;;18.90;11.57;;;13.50;99.90;;;;;;4959438;28;20205;-58
2023/10/01 02:58:27;;;;;;;18.07;11.27;;;13.50;99.90;;;;;;4954634;28;20194;-58
2023/10/01 03:00:53;;;;;;;14.43;8.67;;;13.50;99.90;;;;;;4955011;28;20701;-58
2023/10/01 03:03:31;;;;;;;17.47;10.37;;;13.40;99.90;;;;;;4955146;28;20300;-58
2023/10/01 03:05:58;;;;;;;18.30;10.67;;;13.40;99.90;;;;;;4957248;28;20263;-58
2023/10/01 03:11:11;;;;;;;19.20;11.03;;;13.30;99.90;;;;;;4952116;29;20223;-58
2023/10/01 03:13:39;;;;;;;15.97;9.93;;;13.30;99.90;;;;;;4960679;28;20650;-58
2023/10/01 03:18:47;;;;;;;16.17;10.00;;;13.20;99.90;;;;;;4939873;29;20201;-58
2023/10/01 03:22:11;;;;;;;17.30;10.53;;;13.10;99.90;;;;;;4953667;29;20634;-58
2023/10/01 03:24:03;;;;;;;15.23;10.83;;;13.10;99.90;;;;;;4953210;28;20217;-58
2023/10/01 03:26:33;;;;;;;15.00;10.33;;;13.10;99.90;;;;;;4953762;29;20205;-58
2023/10/01 03:29:19;;;;;;;18.10;10.20;;;13.00;99.90;;;;;;4954116;29;20221;-58
2023/10/01 03:31:46;;;;;;;14.53;9.20;;;13.10;99.90;;;;;;4949339;28;20590;-58
2023/10/01 03:34:28;;;;;;;15.43;10.87;;;13.10;99.90;;;;;;4948486;28;20235;-58
2023/10/01 03:36:58;;;;;;;15.03;9.50;;;13.10;99.90;;;;;;4944694;28;20240;-58
2023/10/01 03:39:26;;;;;;;18.33;10.57;;;13.10;99.90;;;;;;4947021;28;20660;-58
2023/10/01 03:42:10;;;;;;;16.43;10.40;;;13.10;99.90;;;;;;4946908;28;20916;-58
2023/10/01 03:47:23;;;;;;;17.40;9.97;;;13.00;99.90;;;;;;4946312;28;20216;-58
2023/10/01 03:49:54;;;;;;;15.63;10.00;;;13.00;99.90;;;;;;4947821;28;20671;-58
2023/10/01 03:52:21;;;;;;;14.33;10.10;;;13.00;99.90;;;;;;4950632;28;20237;-58
2023/10/01 03:55:00;;;;;;;17.83;10.27;;;13.00;99.90;;;;;;4946628;28;20209;-58
2023/10/01 03:57:29;;;;;;;17.53;10.43;;;13.00;99.90;;;;;;4946538;28;20231;-58
2023/10/01 04:00:08;;;;;;;18.10;9.83;;;12.90;99.90;;;;;;4947723;28;20215;-59
2023/10/01 04:02:46;;;;;;;16.00;11.00;;;12.90;99.90;;;;;;4948688;28;20232;-58
2023/10/01 04:05:22;;;;;;;17.17;9.93;;;12.90;99.90;;;;;;4947389;28;20213;-58
2023/10/01 04:07:50;;;;;;;19.50;11.43;;;12.90;99.90;;;;;;4946583;28;20221;-58
2023/10/01 04:10:28;;;;;;;13.37;9.43;;;12.90;99.90;;;;;;4946262;28;20675;-57
2023/10/01 04:12:59;;;;;;;17.00;9.97;;;12.90;99.90;;;;;;4948586;28;20244;-57
2023/10/01 04:15:29;;;;;;;13.47;9.30;;;13.00;99.90;;;;;;4950927;28;20213;-57
2023/10/01 04:18:21;;;;;;;11.73;8.60;;;13.00;99.90;;;;;;4949353;28;20196;-57
2023/10/01 04:21:12;;;;;;;15.90;8.43;;;13.00;99.90;;;;;;4954413;28;20223;-57
2023/10/01 04:23:40;;;;;;;14.87;9.37;;;12.90;99.90;;;;;;4952743;28;20229;-57
2023/10/01 04:26:08;;;;;;;15.43;9.20;;;12.80;99.90;;;;;;4952747;28;20271;-57
2023/10/01 04:28:37;;;;;;;11.57;9.20;;;12.70;99.90;;;;;;4953507;28;21069;-57
2023/10/01 04:31:09;;;;;;;12.83;8.37;;;12.70;99.90;;;;;;4955221;28;20264;-57
2023/10/01 04:33:36;;;;;;;10.03;8.07;;;12.70;99.90;;;;;;4948059;28;20651;-57
2023/10/01 04:36:10;;;;;;;11.87;8.63;;;12.70;99.90;;;;;;4942315;29;20289;-57
2023/10/01 04:38:38;;;;;;;9.37;7.40;;;12.70;99.90;;;;;;4949541;28;20223;-57
2023/10/01 04:41:07;;;;;;;13.03;8.30;;;12.70;99.90;;;;;;4953233;29;20209;-59
2023/10/01 04:43:35;;;;;;;10.30;7.83;;;12.60;99.90;;;;;;4953069;28;20220;-60
2023/10/01 04:46:08;;;;;;;16.77;9.10;;;12.70;99.90;;;;;;4947684;29;20307;-59
2023/10/01 04:48:37;;;;;;;14.00;8.33;;;12.60;99.90;;;;;;4951523;28;20225;-59
2023/10/01 04:51:07;;;;;;;14.37;8.07;;;12.60;99.90;;;;;;4953062;29;20288;-59
2023/10/01 04:53:35;;;;;;;10.13;7.70;;;12.70;99.90;;;;;;4951026;28;20239;-59
2023/10/01 04:56:05;;;;;;;15.60;7.93;;;12.70;99.90;;;;;;4953631;29;20205;-59
2023/10/01 04:58:36;;;;;;;13.60;8.83;;;12.70;99.90;;;;;;4952027;28;20205;-59
2023/10/01 05:01:05;;;;;;;17.27;10.47;;;12.60;99.90;;;;;;4955796;28;20228;-59
2023/10/01 05:03:39;;;;;;;14.70;10.00;;;12.60;99.90;;;;;;4944892;29;20255;-59
2023/10/01 05:06:12;;;;;;;14.87;9.23;;;12.60;99.90;;;;;;4944251;29;20237;-59
2023/10/01 05:08:40;;;;;;;14.23;8.47;;;12.60;99.90;;;;;;4956244;28;20220;-59
2023/10/01 05:11:10;;;;;;;15.80;10.00;;;12.60;99.90;;;;;;4961539;28;20488;-59
2023/10/01 05:13:40;;;;;;;13.57;9.40;;;12.60;99.90;;;;;;4949736;28;20228;-59
2023/10/01 05:16:07;;;;;;;15.80;9.13;;;12.60;99.90;;;;;;4957160;28;20227;-57
2023/10/01 05:18:34;;;;;;;14.50;10.43;;;12.60;99.90;;;;;;4961697;28;20200;-57
2023/10/01 05:21:04;;;;;;;14.27;7.83;;;12.60;99.90;;;;;;4954751;28;20208;-57
2023/10/01 05:23:33;;;;;;;12.33;8.57;;;12.60;99.90;;;;;;4949205;28;20220;-60
2023/10/01 05:26:00;;;;;;;13.30;8.50;;;12.70;99.90;;;;;;4958374;28;20578;-57
2023/10/01 05:28:34;;;;;;;12.93;7.73;;;12.60;99.90;;;;;;4951504;28;20571;-57
2023/10/01 05:31:05;;;;;;;12.40;8.33;;;12.60;99.90;;;;;;4953225;28;20265;-57
2023/10/01 05:33:34;;;;;;;16.77;10.10;;;12.60;99.90;;;;;;4945620;29;20243;-57
2023/10/01 05:36:04;;;;;;;14.97;9.27;;;12.60;99.90;;;;;;4965541;28;20212;-57
2023/10/01 05:38:34;;;;;;;12.33;7.57;;;12.60;99.90;;;;;;4945397;29;20286;-58
2023/10/01 05:41:03;;;;;;;11.10;7.87;;;12.60;99.90;;;;;;4950603;28;20679;-57
2023/10/01 05:43:35;;;;;;;13.30;7.77;;;12.60;99.90;;;;;;4964645;28;20225;-58
2023/10/01 05:46:02;;;;;;;13.17;8.17;;;12.60;99.90;;;;;;4960624;28;20212;-58
2023/10/01 05:48:32;;;;;;;9.47;6.83;;;12.70;99.90;;;;;;4950601;28;20225;-58
2023/10/01 05:51:00;;;;;;;14.90;9.83;;;12.70;99.90;;;;;;4951363;29;20671;-57
2023/10/01 05:53:28;;;;;;;15.00;8.47;;;12.80;99.90;;;;;;4948766;28;20229;-58
2023/10/01 05:56:05;;;;;;;11.50;9.40;;;12.80;99.90;;;;;;4951024;28;20198;-58
2023/10/01 05:58:32;;;;;;;19.03;11.10;;;12.90;99.90;;;;;;4953111;29;20303;-57
2023/10/01 06:01:05;;;;;;;12.87;10.27;;;12.90;99.90;;;;;;4955389;29;20636;-57
2023/10/01 06:03:33;;;;;;;12.73;9.57;;;13.00;99.90;;;;;;4955603;29;20217;-57
2023/10/01 06:06:08;;;;;;;14.20;9.77;;;13.00;99.90;;;;;;4955993;29;20668;-57
2023/10/01 06:08:45;;;;;;;11.10;8.07;;;13.00;99.90;;;;;;4954594;29;20236;-57
2023/10/01 06:11:15;;;;;;;11.50;8.27;;;13.10;99.90;;;;;;4955333;29;20208;-57
2023/10/01 06:13:48;;;;;;;11.13;8.40;;;13.20;99.90;;;;;;4955368;29;20244;-58
2023/10/01 06:16:22;;;;;;;13.70;8.20;;;13.30;99.90;;;;;;4955174;29;20202;-58
2023/10/01 06:18:51;;;;;;;11.77;8.60;;;13.40;99.90;;;;;;4955552;29;20197;-57
2023/10/01 06:21:19;;;;;;;11.13;9.87;;;13.50;99.90;;;;;;4955117;29;20215;-57
2023/10/01 06:23:52;;;;;;;14.27;8.50;;;13.60;99.90;;;;;;4955581;29;20229;-57
2023/10/01 06:26:29;;;;;;;18.83;10.60;;;13.70;99.90;;;;;;4955355;29;20256;-58
2023/10/01 06:28:56;;;;;;;9.00;8.13;;;13.80;99.90;;;;;;4955057;29;20233;-58
2023/10/01 06:31:24;;;;;;;14.90;10.23;;;13.90;99.90;;;;;;4954580;29;20205;-58
2023/10/01 06:33:53;;;;;;;12.53;9.23;;;13.90;99.90;;;;;;4954916;29;20268;-58
2023/10/01 06:36:25;;;;;;;15.43;9.03;;;13.90;99.90;;;;;;4955023;29;20201;-58
2023/10/01 06:38:53;;;;;;;17.53;9.10;;;13.90;99.90;;;;;;4951793;29;20209;-58
2023/10/01 06:41:28;;;;;;;13.70;8.73;;;14.00;99.90;;;;;;4954450;29;20206;-58
2023/10/01 06:43:56;;;;;;;14.20;9.37;;;14.20;99.90;;;;;;4954945;29;20741;-58
2023/10/01 06:46:27;;;;;;;15.47;9.30;;;14.30;99.90;;;;;;4954833;29;20256;-58
2023/10/01 06:48:56;;;;;;;14.80;9.33;;;14.30;99.90;;;;;;4954226;29;20741;-58
2023/10/01 06:51:24;;;;;;;14.10;8.63;;;14.40;99.90;;;;;;4954005;29;20650;-58
2023/10/01 06:53:58;;;;;;;15.77;10.07;;;14.40;99.90;;;;;;4952538;28;20324;-59
2023/10/01 06:56:29;;;;;;;15.70;9.33;;;14.50;99.90;;;;;;4953573;29;20224;-58
2023/10/01 06:59:17;;;;;;;14.33;9.53;;;14.60;99.90;;;;;;4953366;29;20208;-58
2023/10/01 07:01:56;;;;;;;17.47;10.23;;;14.70;99.90;;;;;;4948629;28;20224;-58
2023/10/01 07:04:24;;;;;;;18.55;11.45;;;14.80;99.90;;;;;;4951308;28;20455;-57
2023/10/01 07:06:51;;;;;;;16.33;9.53;;;14.80;99.90;;;;;;4954871;28;20690;-58
2023/10/01 07:09:34;;;;;;;16.10;9.20;;;14.90;99.90;;;;;;4954783;28;20225;-58
2023/10/01 07:12:03;;;;;;;16.10;9.60;;;15.00;99.90;;;;;;4952830;28;20210;-58
2023/10/01 07:14:38;;;;;;;18.70;10.87;;;15.20;99.90;;;;;;4947053;29;20224;-58
2023/10/01 07:17:08;;;;;;;15.77;10.03;;;15.30;99.90;;;;;;4953879;29;20240;-58
2023/10/01 07:19:35;;;;;;;18.37;9.50;;;15.40;99.90;;;;;;4954818;29;20209;-58
2023/10/01 07:22:06;;;;;;;15.13;8.97;;;15.50;99.90;;;;;;4952553;28;20205;-61
2023/10/01 07:24:33;;;;;;;13.77;9.80;;;15.60;99.90;;;;;;4953394;28;20213;-61
2023/10/01 07:27:06;;;;;;;14.50;7.97;;;15.60;99.90;;;;;;4954288;29;20229;-61
2023/10/01 07:29:35;;;;;;;13.83;8.93;;;15.70;99.90;;;;;;4951058;29;20225;-66
2023/10/01 07:32:07;;;;;;;14.70;9.07;;;15.80;99.90;;;;;;4951233;28;20209;-65
2023/10/01 07:34:35;;;;;;;19.10;9.40;;;15.80;99.90;;;;;;4950322;28;20292;-65
2023/10/01 07:37:04;;;;;;;16.47;9.63;;;15.90;99.90;;;;;;4953126;28;20289;-66
2023/10/01 07:39:40;;;;;;;13.97;8.87;;;16.00;99.90;;;;;;4952862;29;20287;-65
2023/10/01 07:42:10;;;;;;;14.57;10.17;;;16.10;99.90;;;;;;4952087;28;20874;-56
2023/10/01 07:44:37;;;;;;;17.90;10.60;;;16.30;99.90;;;;;;4948045;29;20687;-56
2023/10/01 07:47:06;;;;;;;16.43;9.87;;;16.40;99.90;;;;;;4952881;29;20590;-56
2023/10/01 07:49:47;;;;;;;15.50;8.83;;;16.70;99.90;;;;;;4952255;29;20256;-56
2023/10/01 07:52:21;;;;;;;14.93;8.70;;;17.00;99.90;;;;;;4951355;28;20308;-56
2023/10/01 07:54:49;;;;;;;15.67;9.97;;;17.30;99.90;;;;;;4952601;28;20201;-56
2023/10/01 07:57:27;;;;;;;13.67;8.73;;;17.30;99.90;;;;;;4951427;29;20205;-56
2023/10/01 07:59:54;;;;;;;14.07;8.80;;;17.40;99.90;;;;;;4950978;28;20201;-56
2023/10/01 08:02:21;;;;;;;15.53;9.83;;;17.50;99.90;;;;;;4952397;29;20225;-56
2023/10/01 08:04:57;;;;;;;16.57;9.43;;;17.60;99.90;;;;;;4953212;29;20201;-56
2023/10/01 08:07:30;;;;;;;15.37;8.73;;;17.60;99.90;;;;;;4952582;29;20197;-56
2023/10/01 08:09:59;;;;;;;18.77;9.77;;;17.50;99.90;;;;;;4949927;29;20233;-57
2023/10/01 08:15:29;;;;;;;17.20;9.07;;;17.50;99.90;;;;;;4958102;28;20282;-56
2023/10/01 08:17:57;;;;;;;16.27;9.47;;;17.60;99.90;;;;;;4954952;28;20564;-56
2023/10/01 08:20:32;;;;;;;16.27;9.33;;;17.70;99.90;;;;;;4955952;28;20204;-56
2023/10/01 08:23:22;;;;;;;17.50;10.20;;;17.90;99.90;;;;;;4955586;28;20236;-56
2023/10/01 08:25:51;;;;;;;18.50;10.40;;;18.10;99.90;;;;;;4949444;28;20643;-56
2023/10/01 08:28:29;;;;;;;17.50;10.17;;;18.20;99.90;;;;;;4960591;28;20208;-56
2023/10/01 08:31:20;;;;;;;15.00;9.10;;;18.30;99.90;;;;;;4952012;28;20528;-56
2023/10/01 08:33:51;;;;;;;15.33;9.30;;;18.40;99.90;;;;;;4952547;28;20279;-57
2023/10/01 08:36:24;;;;;;;13.97;9.13;;;18.40;99.90;;;;;;4955383;28;20219;-56
2023/10/01 08:41:36;;;;;;;13.10;9.27;;;19.20;99.90;;;;;;4947113;28;20193;-56
2023/10/01 08:44:11;;;;;;;11.33;8.13;;;20.00;99.90;;;;;;4952566;28;20228;-57
2023/10/01 08:46:40;;;;;;;13.83;8.53;;;20.80;99.90;;;;;;4952931;29;20219;-57
2023/10/01 08:49:22;;;;;;;15.40;9.67;;;21.80;99.90;;;;;;4952702;29;20696;-57
2023/10/01 08:52:17;;;;;;;14.57;8.93;;;22.70;99.90;;;;;;4952446;28;20697;-57
2023/10/01 08:54:43;;;;;;;13.67;8.83;;;23.20;99.90;;;;;;4949794;28;20288;-57
2023/10/01 08:57:17;;;;;;;14.93;9.20;;;23.50;99.90;;;;;;4949444;29;20667;-57
2023/10/01 08:59:45;;;;;;;15.03;9.97;;;23.90;99.90;;;;;;4950700;28;20600;-57
2023/10/01 09:02:16;;;;;;;14.63;8.53;;;24.10;99.90;;;;;;4949998;28;20267;-57
2023/10/01 09:04:45;;;;;;;12.40;9.40;;;24.50;99.90;;;;;;4951006;28;20229;-57
2023/10/01 09:07:18;;;;;;;16.20;9.57;;;24.70;99.90;;;;;;4951272;28;20293;-57
2023/10/01 09:10:05;;;;;;;15.70;10.20;;;24.80;99.90;;;;;;4951189;29;20313;-57
2023/10/01 09:12:35;;;;;;;14.87;9.83;;;25.10;99.90;;;;;;4953481;29;20259;-57
2023/10/01 09:15:05;;;;;;;13.37;8.23;;;25.40;99.90;;;;;;4955232;29;20231;-57
2023/10/01 09:17:56;;;;;;;14.83;9.77;;;25.50;99.90;;;;;;4949576;29;20288;-57
2023/10/01 09:20:42;;;;;;;16.33;8.97;;;25.40;99.90;;;;;;4951773;29;20572;-57
2023/10/01 09:23:09;;;;;;;14.90;9.40;;;25.70;99.90;;;;;;4948817;28;20603;-57
2023/10/01 09:25:42;;;;;;;13.07;9.90;;;26.00;99.90;;;;;;4946289;28;20265;-57
2023/10/01 09:28:22;;;;;;;17.55;10.20;;;26.20;99.90;;;;;;4951227;28;20573;-57
2023/10/01 09:31:19;;;;;;;16.70;10.53;;;26.30;99.90;;;;;;4948992;28;20231;-57
2023/10/01 09:33:48;;;;;;;18.43;10.57;;;25.90;99.90;;;;;;4955567;29;20338;-57
2023/10/01 09:36:35;;;;;;;11.07;8.82;;;25.50;99.90;;;;;;4951974;28;20197;-57
2023/10/01 09:39:06;;;;;;;17.17;12.07;;;26.10;99.90;;;;;;4954549;28;20251;-57
2023/10/01 09:41:40;;;;;;;16.88;10.90;;;26.10;99.90;;;;;;4955514;28;20235;-57
2023/10/01 09:44:08;;;;;;;14.15;11.10;;;26.10;99.90;;;;;;4955601;29;20275;-57
2023/10/01 09:46:38;;;;;;;15.00;10.23;;;26.40;99.90;;;;;;4955524;29;20258;-57
2023/10/01 09:49:08;;;;;;;17.73;10.43;;;26.60;99.90;;;;;;4957406;28;20581;-57
2023/10/01 09:51:42;;;;;;;15.00;9.85;;;26.30;99.90;;;;;;4954896;28;20700;-57
2023/10/01 09:54:13;;;;;;;14.45;10.00;;;26.40;99.90;;;;;;4954214;28;20205;-57
2023/10/01 09:56:46;;;;;;;13.52;9.93;;;26.00;99.90;;;;;;4956123;29;20248;-57
2023/10/01 09:59:15;;;;;;;16.38;9.75;;;26.10;99.90;;;;;;4954461;28;20199;-57
2023/10/01 10:01:46;;;;;;;17.27;10.70;;;26.40;99.90;;;;;;4951224;29;20275;-57
2023/10/01 10:04:19;;;;;;;16.45;11.20;;;26.30;99.90;;;;;;4953565;28;20201;-57
2023/10/01 10:06:59;;;;;;;20.38;11.60;;;26.50;99.90;;;;;;4955175;29;20252;-57
2023/10/01 10:09:29;;;;;;;17.42;12.52;;;26.30;99.90;;;;;;4952865;28;20235;-57
2023/10/01 10:12:01;;;;;;;19.30;13.50;;;26.60;99.90;;;;;;4955660;28;20629;-57
2023/10/01 10:14:56;;;;;;;16.63;11.43;;;26.80;99.90;;;;;;4954937;29;20300;-57
2023/10/01 10:17:25;;;;;;;17.70;12.90;;;26.50;99.90;;;;;;4955045;29;20205;-57
2023/10/01 10:20:25;;;;;;;18.27;11.70;;;26.20;99.90;;;;;;4950743;28;20197;-56
2023/10/01 10:23:16;;;;;;;21.53;12.97;;;25.60;99.90;;;;;;4950212;29;20225;-57
2023/10/01 10:25:43;;;;;;;15.53;11.17;;;25.00;99.90;;;;;;4955996;29;20243;-57
2023/10/01 10:28:12;;;;;;;21.07;13.37;;;24.90;99.90;;;;;;4955237;29;20288;-57
2023/10/01 10:30:46;;;;;;;16.77;12.20;;;24.80;99.90;;;;;;4952990;28;20225;-57
2023/10/01 10:33:41;;;;;;;19.23;12.47;;;24.40;99.90;;;;;;4958506;28;20303;-57
2023/10/01 10:36:58;;;;;;;19.63;13.10;;;24.30;99.90;;;;;;4959697;28;20605;-56
2023/10/01 10:40:12;;;;;;;19.77;13.10;;;23.90;99.90;;;;;;4949766;28;20287;-57
2023/10/01 10:42:40;;;;;;;25.03;13.77;;;23.10;99.90;;;;;;4953683;28;20247;-56
2023/10/01 10:45:19;;;;;;;22.97;13.60;;;23.00;99.90;;;;;;4951817;28;20265;-57
2023/10/01 10:48:08;;;;;;;17.70;12.97;;;23.00;99.90;;;;;;4948355;29;20201;-57
2023/10/01 10:50:48;;;;;;;18.03;13.13;;;23.00;99.90;;;;;;4945509;28;20225;-56
2023/10/01 10:53:17;;;;;;;23.77;14.03;;;22.50;99.90;;;;;;4955505;28;20283;-56
2023/10/01 10:56:04;;;;;;;26.83;18.43;;;22.40;99.90;;;;;;4956501;28;20198;-56
2023/10/01 10:58:37;;;;;;;20.83;13.93;;;22.40;99.90;;;;;;4954410;28;20260;-57
2023/10/01 11:01:18;;;;;;;24.73;15.63;;;22.60;99.90;;;;;;4951962;29;20248;-56
2023/10/01 11:03:49;;;;;;;25.93;19.30;;;22.50;99.90;;;;;;4951908;28;20236;-57
2023/10/01 11:06:19;;;;;;;23.40;14.63;;;22.50;99.90;;;;;;4951525;29;20213;-56
2023/10/01 11:08:53;;;;;;;23.23;14.13;;;22.50;99.90;;;;;;4952364;29;20205;-57
2023/10/01 11:11:25;;;;;;;25.43;16.63;;;22.60;99.90;;;;;;4950466;29;20221;-56
2023/10/01 11:14:00;;;;;;;18.77;13.30;;;22.60;99.90;;;;;;4952136;29;20288;-58
2023/10/01 11:16:33;;;;;;;17.63;12.37;;;22.70;99.90;;;;;;4952819;29;20204;-57
2023/10/01 11:19:12;;;;;;;19.37;12.60;;;22.90;99.90;;;;;;4953006;29;20280;-57
2023/10/01 11:21:59;;;;;;;19.77;13.23;;;22.90;99.90;;;;;;4949783;28;20220;-57
2023/10/01 11:24:30;;;;;;;21.60;14.43;;;22.70;99.90;;;;;;4952563;29;20256;-57
2023/10/01 11:27:22;;;;;;;22.20;14.77;;;22.70;99.90;;;;;;4951539;29;20288;-56
2023/10/01 11:30:16;;;;;;;21.50;13.50;;;22.40;99.90;;;;;;4952291;29;20237;-56
2023/10/01 11:33:01;;;;;;;20.10;12.87;;;22.40;99.90;;;;;;4950354;29;20311;-57
2023/10/01 11:35:32;;;;;;;16.40;12.23;;;22.40;99.90;;;;;;4950456;28;20256;-57
2023/10/01 11:38:03;;;;;;;18.07;13.33;;;21.90;99.90;;;;;;4950851;28;20216;-57
2023/10/01 11:41:06;;;;;;;25.50;13.17;;;22.00;99.90;;;;;;4951391;29;20754;-57
2023/10/01 11:43:27;;;;;;;19.50;13.60;;;22.10;99.90;;;;;;4951651;29;20312;-56
2023/10/01 11:46:23;;;;;;;28.50;13.03;;;22.20;99.90;;;;;;4953460;29;20284;-57
2023/10/01 11:48:59;;;;;;;22.63;12.50;;;22.20;99.90;;;;;;4953290;29;20682;-57
2023/10/01 11:51:38;;;;;;;19.83;13.43;;;22.00;99.90;;;;;;4953056;29;20220;-56
2023/10/01 11:54:10;;;;;;;21.83;14.40;;;21.90;99.90;;;;;;4951542;28;20829;-57
2023/10/01 11:56:40;;;;;;;20.63;12.30;;;22.00;99.90;;;;;;4953051;29;20635;-57
2023/10/01 11:59:10;;;;;;;18.47;11.30;;;22.20;99.90;;;;;;4953557;29;20292;-57
2023/10/01 12:01:47;;;;;;;19.80;12.27;;;22.40;99.90;;;;;;4951316;29;20244;-57
2023/10/01 12:04:21;;;;;;;20.73;13.57;;;22.40;99.90;;;;;;4953173;29;20283;-57
2023/10/01 12:06:49;;;;;;;22.17;14.30;;;22.50;99.90;;;;;;4953305;29;20223;-57
2023/10/01 12:09:19;;;;;;;21.93;13.13;;;22.60;99.90;;;;;;4950062;29;20264;-57
2023/10/01 12:12:03;;;;;;;19.60;12.97;;;22.20;99.90;;;;;;4951906;28;20641;-56
2023/10/01 12:14:30;;;;;;;19.17;12.70;;;22.20;99.90;;;;;;4952866;29;20236;-57
2023/10/01 12:17:01;;;;;;;20.30;14.93;;;22.20;99.90;;;;;;4953122;29;20276;-57
2023/10/01 12:19:29;;;;;;;24.07;16.50;;;22.30;99.90;;;;;;4952239;29;20201;-57
2023/10/01 12:22:09;;;;;;;25.97;16.90;;;22.10;99.90;;;;;;4952577;29;20204;-57
2023/10/01 12:24:44;;;;;;;25.00;16.47;;;21.90;99.90;;;;;;4952547;29;20204;-57
2023/10/01 12:27:37;;;;;;;23.00;15.27;;;21.90;99.90;;;;;;4952100;28;20608;-57
2023/10/01 12:29:59;;;;;;;21.27;14.13;;;21.80;99.90;;;;;;4952544;29;20307;-56
2023/10/01 12:32:40;;;;;;;24.00;14.03;;;22.00;99.90;;;;;;4952458;29;20221;-57
2023/10/01 12:35:18;;;;;;;24.43;15.27;;;22.10;99.90;;;;;;4950680;29;20252;-57
2023/10/01 12:37:45;;;;;;;24.27;15.90;;;22.20;99.90;;;;;;4947452;29;20287;-57
2023/10/01 12:40:16;;;;;;;24.47;15.33;;;22.20;99.90;;;;;;4948856;28;20197;-57
2023/10/01 12:42:50;;;;;;;22.10;14.67;;;22.00;99.90;;;;;;4950886;29;20280;-57
2023/10/01 12:45:19;;;;;;;23.50;14.23;;;22.00;99.90;;;;;;4951125;28;20197;-57
2023/10/01 12:47:50;;;;;;;23.87;15.50;;;21.90;99.90;;;;;;4952287;29;20197;-57
2023/10/01 12:50:26;;;;;;;20.07;14.50;;;22.00;99.90;;;;;;4950210;28;20227;-57
2023/10/01 12:53:19;;;;;;;21.90;14.60;;;21.90;99.90;;;;;;4952027;29;20241;-57
2023/10/01 12:55:56;;;;;;;26.57;14.93;;;21.60;99.90;;;;;;4951024;29;20212;-57
2023/10/01 12:58:35;;;;;;;20.90;13.60;;;21.60;99.90;;;;;;4950859;29;20201;-57
2023/10/01 13:01:05;;;;;;;24.00;13.83;;;21.60;99.90;;;;;;4951997;29;20189;-57
2023/10/01 13:03:31;;;;;;;21.83;12.77;;;21.80;99.90;;;;;;4951422;28;20284;-57
2023/10/01 13:06:05;;;;;;;26.73;14.83;;;21.70;99.90;;;;;;4951546;28;20614;-57
2023/10/01 13:08:31;;;;;;;25.07;15.77;;;21.90;99.90;;;;;;4951095;29;20203;-57
2023/10/01 13:11:00;;;;;;;23.00;14.77;;;21.80;99.90;;;;;;4949592;29;20232;-57
2023/10/01 13:13:35;;;;;;;21.50;14.10;;;21.60;99.90;;;;;;4949775;29;20225;-57
2023/10/01 13:16:02;;;;;;;22.00;13.47;;;21.50;99.90;;;;;;4950365;29;20207;-56